createdAt,value
2022-12-24T00:01:05.987Z,11.71
2022-12-24T00:03:33.879Z,11.69
2022-12-24T00:06:08.529Z,11.58
2022-12-24T00:08:35.986Z,11.63
2022-12-24T00:11:02.773Z,11.40
2022-12-24T00:13:29.591Z,11.56
2022-12-24T00:15:56.406Z,11.54
2022-12-24T00:18:23.174Z,11.49
2022-12-24T00:20:50.847Z,11.48
2022-12-24T00:23:18.193Z,11.44
2022-12-24T00:25:45.899Z,11.41
2022-12-24T00:28:14.143Z,11.40
2022-12-24T00:30:42.294Z,11.37
2022-12-24T00:33:09.865Z,11.37
2022-12-24T00:35:38.819Z,11.31
2022-12-24T00:38:06.475Z,11.28
2022-12-24T00:40:34.162Z,11.27
2022-12-24T00:43:01.010Z,11.24
2022-12-24T00:45:28.084Z,11.17
2022-12-24T00:47:55.240Z,11.23
2022-12-24T00:50:22.063Z,11.18
2022-12-24T00:52:48.872Z,11.20
2022-12-24T00:55:15.677Z,11.17
2022-12-24T00:57:42.454Z,11.15
2022-12-24T01:00:09.911Z,11.06
2022-12-24T01:02:36.891Z,11.11
2022-12-24T01:05:12.956Z,11.07
2022-12-24T01:07:44.089Z,11.08
2022-12-24T01:10:14.166Z,11.07
2022-12-24T01:12:41.124Z,11.04
2022-12-24T01:15:09.184Z,11.04
2022-12-24T01:17:36.962Z,10.98
2022-12-24T01:20:05.715Z,10.98
2022-12-24T01:22:32.470Z,10.97
2022-12-24T01:24:59.210Z,10.93
2022-12-24T01:27:26.080Z,10.84
2022-12-24T01:29:52.873Z,10.92
2022-12-24T01:32:19.817Z,10.94
2022-12-24T01:34:46.596Z,10.92
2022-12-24T01:37:13.385Z,10.93
2022-12-24T01:39:40.253Z,10.94
2022-12-24T01:42:41.975Z,10.95
2022-12-24T01:45:44.089Z,11.01
2022-12-24T01:48:34.412Z,11.03
2022-12-24T01:51:21.181Z,11.03
2022-12-24T01:53:54.181Z,11.06
2022-12-24T01:56:21.798Z,10.97
2022-12-24T01:58:55.254Z,11.00
2022-12-24T02:01:22.350Z,11.11
2022-12-24T02:03:49.786Z,11.09
2022-12-24T02:06:19.185Z,11.07
2022-12-24T02:08:46.034Z,11.10
2022-12-24T02:11:22.609Z,11.15
2022-12-24T02:13:57.964Z,11.15
2022-12-24T02:16:55.552Z,11.15
2022-12-24T02:20:14.601Z,10.95
2022-12-24T02:23:13.375Z,11.04
2022-12-24T02:26:02.013Z,11.11
2022-12-24T02:28:47.317Z,11.09
2022-12-24T02:31:23.574Z,11.09
2022-12-24T02:34:05.221Z,11.11
2022-12-24T02:36:45.077Z,11.14
2022-12-24T02:39:22.671Z,11.18
2022-12-24T02:42:05.951Z,11.20
2022-12-24T02:44:49.151Z,11.20
2022-12-24T02:47:19.866Z,11.20
2022-12-24T02:49:48.675Z,11.09
2022-12-24T02:52:40.183Z,11.20
2022-12-24T02:55:23.456Z,11.18
2022-12-24T02:58:48.643Z,11.19
2022-12-24T03:02:02.385Z,11.13
2022-12-24T03:04:45.331Z,11.08
2022-12-24T03:07:33.674Z,11.05
2022-12-24T03:10:18.771Z,11.03
2022-12-24T03:12:51.069Z,11.06
2022-12-24T03:15:22.015Z,11.05
2022-12-24T03:17:53.336Z,11.06
2022-12-24T03:20:27.038Z,11.05
2022-12-24T03:22:53.893Z,11.04
2022-12-24T03:25:24.456Z,11.05
2022-12-24T03:27:52.142Z,11.04
2022-12-24T03:30:19.181Z,11.01
2022-12-24T03:32:46.809Z,10.98
2022-12-24T03:35:14.279Z,10.97
2022-12-24T03:37:41.112Z,10.98
2022-12-24T03:40:08.746Z,10.99
2022-12-24T03:42:36.089Z,10.98
2022-12-24T03:45:02.956Z,10.95
2022-12-24T03:47:30.896Z,10.86
2022-12-24T03:49:57.677Z,10.92
2022-12-24T03:52:24.690Z,10.92
2022-12-24T03:54:51.498Z,10.88
2022-12-24T03:57:18.359Z,10.88
2022-12-24T03:59:45.219Z,10.83
2022-12-24T04:02:12.241Z,10.86
2022-12-24T04:04:39.177Z,10.86
2022-12-24T04:07:06.771Z,10.86
2022-12-24T04:09:33.573Z,10.85
2022-12-24T04:12:00.479Z,10.74
2022-12-24T04:14:27.259Z,10.84
2022-12-24T04:16:54.111Z,10.82
2022-12-24T04:19:21.021Z,10.62
2022-12-24T04:21:47.778Z,10.81
2022-12-24T04:24:14.554Z,10.78
2022-12-24T04:26:41.428Z,10.79
2022-12-24T04:29:08.232Z,10.80
2022-12-24T04:31:35.025Z,10.75
2022-12-24T04:34:02.022Z,10.78
2022-12-24T04:36:29.918Z,10.76
2022-12-24T04:38:56.789Z,10.73
2022-12-24T04:41:25.098Z,10.73
2022-12-24T04:43:54.764Z,10.71
2022-12-24T04:46:26.020Z,10.72
2022-12-24T04:48:54.888Z,10.72
2022-12-24T04:51:22.561Z,10.69
2022-12-24T04:53:50.036Z,10.69
2022-12-24T04:56:24.933Z,10.69
2022-12-24T04:58:52.860Z,10.67
2022-12-24T05:01:23.857Z,10.67
2022-12-24T05:03:51.831Z,10.58
2022-12-24T05:06:22.802Z,10.65
2022-12-24T05:08:49.960Z,10.61
2022-12-24T05:11:17.440Z,10.63
2022-12-24T05:13:47.432Z,10.59
2022-12-24T05:16:20.885Z,10.59
2022-12-24T05:18:47.809Z,10.54
2022-12-24T05:21:19.418Z,10.60
2022-12-24T05:24:04.993Z,10.56
2022-12-24T05:26:33.952Z,10.61
2022-12-24T05:29:02.004Z,10.58
2022-12-24T05:31:31.839Z,10.57
2022-12-24T05:33:58.892Z,10.56
2022-12-24T05:36:25.960Z,10.53
2022-12-24T05:38:52.965Z,10.55
2022-12-24T05:41:20.048Z,10.56
2022-12-24T05:43:47.150Z,10.58
2022-12-24T05:46:18.967Z,10.58
2022-12-24T05:48:46.700Z,10.61
2022-12-24T05:51:18.652Z,10.63
2022-12-24T05:53:47.122Z,10.64
2022-12-24T05:56:21.030Z,10.58
2022-12-24T05:58:48.474Z,10.65
2022-12-24T06:01:16.221Z,10.69
2022-12-24T06:03:43.414Z,10.69
2022-12-24T06:06:19.127Z,10.70
2022-12-24T06:08:45.985Z,10.69
2022-12-24T06:11:15.663Z,10.71
2022-12-24T06:13:43.249Z,10.66
2022-12-24T06:16:14.382Z,10.66
2022-12-24T06:18:41.297Z,10.67
2022-12-24T06:21:08.655Z,10.65
2022-12-24T06:23:38.335Z,10.59
2022-12-24T06:26:07.398Z,10.69
2022-12-24T06:28:37.751Z,10.67
2022-12-24T06:31:07.163Z,10.69
2022-12-24T06:33:34.958Z,10.48
2022-12-24T06:36:02.318Z,10.67
2022-12-24T06:38:32.124Z,10.68
2022-12-24T06:40:58.947Z,10.67
2022-12-24T06:43:25.745Z,10.70
2022-12-24T06:45:53.417Z,10.71
2022-12-24T06:48:20.231Z,10.71
2022-12-24T06:50:47.188Z,10.72
2022-12-24T06:53:13.960Z,10.74
2022-12-24T06:55:40.709Z,10.73
2022-12-24T06:58:07.547Z,10.72
2022-12-24T07:00:34.547Z,10.70
2022-12-24T07:03:02.299Z,10.74
2022-12-24T07:05:29.841Z,10.74
2022-12-24T07:07:57.096Z,10.75
2022-12-24T07:10:24.190Z,10.76
2022-12-24T07:12:51.156Z,10.76
2022-12-24T07:15:17.964Z,10.75
2022-12-24T07:17:44.870Z,10.74
2022-12-24T07:20:14.975Z,10.73
2022-12-24T07:22:42.981Z,10.61
2022-12-24T07:25:10.602Z,10.73
2022-12-24T07:27:38.164Z,10.74
2022-12-24T07:30:06.264Z,10.71
2022-12-24T07:32:33.371Z,10.70
2022-12-24T07:35:00.193Z,10.70
2022-12-24T07:37:27.069Z,10.58
2022-12-24T07:39:53.830Z,10.70
2022-12-24T07:42:20.698Z,10.69
2022-12-24T07:44:47.547Z,10.69
2022-12-24T07:47:14.337Z,10.69
2022-12-24T07:49:41.187Z,10.68
2022-12-24T07:52:07.961Z,10.67
2022-12-24T07:54:35.159Z,10.67
2022-12-24T07:57:01.999Z,10.66
2022-12-24T07:59:28.759Z,10.65
2022-12-24T08:01:55.745Z,10.64
2022-12-24T08:04:22.711Z,10.64
2022-12-24T08:06:49.880Z,10.64
2022-12-24T08:09:16.844Z,10.67
2022-12-24T08:11:51.366Z,10.67
2022-12-24T08:14:19.304Z,10.68
2022-12-24T08:16:46.277Z,10.69
2022-12-24T08:19:13.177Z,10.70
2022-12-24T08:21:40.064Z,10.71
2022-12-24T08:24:07.069Z,10.72
2022-12-24T08:26:33.946Z,10.73
2022-12-24T08:29:02.926Z,10.73
2022-12-24T08:31:30.355Z,10.74
2022-12-24T08:33:57.248Z,10.75
2022-12-24T08:36:24.026Z,10.77
2022-12-24T08:38:50.792Z,10.76
2022-12-24T08:41:17.651Z,10.76
2022-12-24T08:43:44.408Z,10.77
2022-12-24T08:46:11.288Z,10.74
2022-12-24T08:48:38.259Z,10.76
2022-12-24T08:51:12.398Z,10.77
2022-12-24T08:53:39.721Z,10.81
2022-12-24T08:56:10.115Z,10.86
2022-12-24T08:58:36.950Z,10.75
2022-12-24T09:01:16.731Z,10.82
2022-12-24T09:03:44.227Z,10.78
2022-12-24T09:06:11.516Z,10.83
2022-12-24T09:08:38.678Z,10.92
2022-12-24T09:11:13.920Z,10.90
2022-12-24T09:13:41.617Z,10.91
2022-12-24T09:16:09.115Z,10.95
2022-12-24T09:18:36.683Z,10.91
2022-12-24T09:21:11.532Z,11.00
2022-12-24T09:23:42.035Z,10.98
2022-12-24T09:26:22.796Z,11.04
2022-12-24T09:28:50.229Z,11.03
2022-12-24T09:31:17.798Z,11.05
2022-12-24T09:33:48.382Z,11.08
2022-12-24T09:36:15.504Z,11.14
2022-12-24T09:38:42.394Z,11.10
2022-12-24T09:41:13.599Z,11.10
2022-12-24T09:43:46.896Z,11.07
2022-12-24T09:46:36.393Z,11.12
2022-12-24T09:49:10.576Z,11.12
2022-12-24T09:51:44.231Z,11.13
2022-12-24T09:54:32.366Z,11.15
2022-12-24T09:57:14.697Z,11.15
2022-12-24T09:59:47.103Z,11.14
2022-12-24T10:02:19.480Z,11.13
2022-12-24T10:04:48.498Z,11.15
2022-12-24T10:07:39.415Z,11.20
2022-12-24T10:10:37.385Z,11.21
2022-12-24T10:13:31.085Z,11.22
2022-12-24T10:16:44.069Z,11.22
2022-12-24T10:19:29.788Z,11.31
2022-12-24T10:22:08.381Z,11.27
2022-12-24T10:25:06.752Z,11.15
2022-12-24T10:27:39.688Z,11.29
2022-12-24T10:30:19.767Z,11.30
2022-12-24T10:32:50.832Z,11.30
2022-12-24T10:35:23.855Z,11.31
2022-12-24T10:37:52.551Z,11.32
2022-12-24T10:40:34.283Z,11.34
2022-12-24T10:43:01.472Z,11.35
2022-12-24T10:45:39.873Z,11.28
2022-12-24T10:48:13.764Z,11.37
2022-12-24T10:51:04.733Z,11.40
2022-12-24T10:53:44.751Z,11.41
2022-12-24T10:56:16.517Z,11.42
2022-12-24T10:58:53.669Z,11.45
2022-12-24T11:01:45.254Z,11.47
2022-12-24T11:04:31.653Z,11.47
2022-12-24T11:07:07.197Z,11.51
2022-12-24T11:09:43.305Z,11.59
2022-12-24T11:12:22.991Z,11.57
2022-12-24T11:15:08.211Z,11.55
2022-12-24T11:17:35.687Z,11.60
2022-12-24T11:20:03.952Z,11.60
2022-12-24T11:22:32.569Z,11.62
2022-12-24T11:25:27.670Z,11.66
2022-12-24T11:27:55.707Z,11.62
2022-12-24T11:30:31.945Z,11.72
2022-12-24T11:33:01.423Z,11.72
2022-12-24T11:35:31.695Z,11.76
2022-12-24T11:38:01.364Z,11.75
2022-12-24T11:40:37.971Z,11.78
2022-12-24T11:43:11.123Z,11.82
2022-12-24T11:45:53.081Z,11.81
2022-12-24T11:48:33.769Z,11.82
2022-12-24T11:51:05.659Z,11.88
2022-12-24T11:54:06.552Z,11.88
2022-12-24T11:56:40.821Z,11.99
2022-12-24T11:59:38.320Z,12.00
2022-12-24T12:02:31.143Z,12.03
2022-12-24T12:05:21.736Z,12.05
2022-12-24T12:07:53.796Z,12.07
2022-12-24T12:10:30.498Z,12.13
2022-12-24T12:13:11.174Z,12.17
2022-12-24T12:15:49.494Z,12.21
2022-12-24T12:18:22.233Z,12.32
2022-12-24T12:21:00.977Z,12.26
2022-12-24T12:23:39.106Z,12.29
2022-12-24T12:26:24.695Z,12.34
2022-12-24T12:29:10.320Z,12.34
2022-12-24T12:31:45.393Z,12.36
2022-12-24T12:34:32.609Z,12.41
2022-12-24T12:37:14.723Z,12.41
2022-12-24T12:39:42.439Z,12.45
2022-12-24T12:42:24.713Z,12.52
2022-12-24T12:45:36.298Z,12.67
2022-12-24T12:48:26.344Z,12.71
2022-12-24T12:51:20.684Z,12.75
2022-12-24T12:54:27.956Z,12.84
2022-12-24T12:57:02.768Z,12.88
2022-12-24T12:59:41.260Z,12.85
2022-12-24T13:02:58.189Z,12.85
2022-12-24T13:06:01.890Z,12.82
2022-12-24T13:09:05.945Z,12.84
2022-12-24T13:11:53.281Z,12.89
2022-12-24T13:15:16.750Z,12.84
2022-12-24T13:18:05.494Z,12.88
2022-12-24T13:20:36.887Z,12.90
2022-12-24T13:23:14.743Z,12.86
2022-12-24T13:25:47.072Z,12.88
2022-12-24T13:28:24.283Z,12.85
2022-12-24T13:31:19.725Z,12.83
2022-12-24T13:33:51.636Z,12.84
2022-12-24T13:36:20.095Z,12.83
2022-12-24T13:38:57.009Z,12.78
2022-12-24T13:41:41.501Z,12.78
2022-12-24T13:44:12.997Z,12.76
2022-12-24T13:46:50.775Z,12.73
2022-12-24T13:49:41.498Z,12.71
2022-12-24T13:52:18.751Z,12.71
2022-12-24T13:55:03.068Z,12.65
2022-12-24T13:57:44.856Z,12.67
2022-12-24T14:00:20.903Z,12.67
2022-12-24T14:03:12.241Z,12.66
2022-12-24T14:05:44.754Z,12.65
2022-12-24T14:08:32.013Z,12.61
2022-12-24T14:11:18.828Z,12.61
2022-12-24T14:13:48.286Z,12.61
2022-12-24T14:16:26.068Z,12.59
2022-12-24T14:19:15.727Z,12.59
2022-12-24T14:21:53.418Z,12.59
2022-12-24T14:24:26.208Z,12.58
2022-12-24T14:27:08.261Z,12.59
2022-12-24T14:29:47.033Z,12.59
2022-12-24T14:32:16.711Z,12.60
2022-12-24T14:34:44.459Z,12.58
2022-12-24T14:37:13.403Z,12.57
2022-12-24T14:39:46.536Z,12.47
2022-12-24T14:42:25.027Z,12.55
2022-12-24T14:45:18.280Z,12.56
2022-12-24T14:48:24.512Z,12.54
2022-12-24T14:51:03.192Z,12.54
2022-12-24T14:54:07.323Z,12.56
2022-12-24T14:56:34.148Z,12.56
2022-12-24T14:59:04.834Z,12.54
2022-12-24T15:01:35.772Z,12.50
2022-12-24T15:04:11.781Z,12.53
2022-12-24T15:06:41.610Z,12.50
2022-12-24T15:09:21.544Z,12.51
2022-12-24T15:11:51.096Z,12.51
2022-12-24T15:14:19.670Z,12.49
2022-12-24T15:17:18.951Z,12.47
2022-12-24T15:19:50.562Z,12.46
2022-12-24T15:22:30.125Z,12.44
2022-12-24T15:24:57.186Z,12.40
2022-12-24T15:27:27.026Z,12.37
2022-12-24T15:29:57.571Z,12.31
2022-12-24T15:32:24.791Z,12.32
2022-12-24T15:34:55.054Z,12.29
2022-12-24T15:37:27.460Z,12.27
2022-12-24T15:40:08.954Z,12.26
2022-12-24T15:42:37.097Z,12.24
2022-12-24T15:45:27.553Z,12.08
2022-12-24T15:48:21.700Z,12.18
2022-12-24T15:50:54.676Z,12.15
2022-12-24T15:53:36.382Z,12.12
2022-12-24T15:56:43.751Z,12.10
2022-12-24T15:59:32.362Z,12.04
2022-12-24T16:02:25.170Z,12.03
2022-12-24T16:04:52.116Z,12.00
2022-12-24T16:07:46.955Z,11.97
2022-12-24T16:10:25.470Z,11.94
2022-12-24T16:12:52.467Z,11.92
2022-12-24T16:15:19.303Z,11.86
2022-12-24T16:17:49.519Z,11.86
2022-12-24T16:20:22.264Z,11.83
2022-12-24T16:22:50.319Z,11.83
2022-12-24T16:25:28.896Z,11.77
2022-12-24T16:28:00.129Z,11.81
2022-12-24T16:30:28.010Z,11.77
2022-12-24T16:32:54.823Z,11.74
2022-12-24T16:35:33.333Z,11.71
2022-12-24T16:38:00.109Z,11.68
2022-12-24T16:40:28.177Z,11.69
2022-12-24T16:43:15.451Z,11.65
2022-12-24T16:45:42.914Z,11.55
2022-12-24T16:48:17.343Z,11.60
2022-12-24T16:50:44.117Z,11.60
2022-12-24T16:53:19.688Z,11.57
2022-12-24T16:55:47.808Z,11.49
2022-12-24T16:58:16.154Z,11.44
2022-12-24T17:00:44.531Z,11.50
2022-12-24T17:03:12.361Z,11.43
2022-12-24T17:05:41.994Z,11.44
2022-12-24T17:08:09.465Z,11.31
2022-12-24T17:10:36.950Z,11.33
2022-12-24T17:13:04.444Z,11.40
2022-12-24T17:15:31.536Z,11.38
2022-12-24T17:17:58.463Z,11.25
2022-12-24T17:20:25.475Z,11.36
2022-12-24T17:22:52.333Z,11.35
2022-12-24T17:25:19.209Z,11.35
2022-12-24T17:27:46.083Z,11.34
2022-12-24T17:30:13.062Z,11.32
2022-12-24T17:32:39.906Z,11.32
2022-12-24T17:35:07.872Z,11.19
2022-12-24T17:37:34.679Z,11.28
2022-12-24T17:40:01.653Z,11.27
2022-12-24T17:42:28.528Z,11.27
2022-12-24T17:44:56.371Z,11.25
2022-12-24T17:47:23.234Z,11.24
2022-12-24T17:49:50.026Z,11.20
2022-12-24T17:52:16.900Z,11.18
2022-12-24T17:54:44.326Z,11.10
2022-12-24T17:57:11.145Z,11.19
2022-12-24T17:59:37.925Z,11.17
2022-12-24T18:02:04.841Z,11.17
2022-12-24T18:04:31.635Z,11.18
2022-12-24T18:07:02.432Z,11.14
2022-12-24T18:09:30.398Z,11.15
2022-12-24T18:11:57.162Z,11.15
2022-12-24T18:14:23.946Z,11.11
2022-12-24T18:16:50.830Z,11.10
2022-12-24T18:19:18.044Z,11.10
2022-12-24T18:21:44.852Z,11.09
2022-12-24T18:24:13.030Z,11.11
2022-12-24T18:26:40.124Z,11.12
2022-12-24T18:29:08.523Z,11.11
2022-12-24T18:31:36.412Z,11.10
2022-12-24T18:34:06.576Z,11.09
2022-12-24T18:36:33.881Z,11.09
2022-12-24T18:39:01.340Z,11.07
2022-12-24T18:41:30.528Z,11.07
2022-12-24T18:43:58.780Z,11.03
2022-12-24T18:46:31.684Z,11.09
2022-12-24T18:49:00.333Z,11.07
2022-12-24T18:51:32.424Z,11.08
2022-12-24T18:53:59.295Z,11.07
2022-12-24T18:56:27.471Z,11.06
2022-12-24T18:59:00.691Z,11.04
2022-12-24T19:01:32.130Z,11.02
2022-12-24T19:03:59.398Z,10.92
2022-12-24T19:06:26.527Z,10.99
2022-12-24T19:08:58.945Z,10.95
2022-12-24T19:11:28.757Z,10.98
2022-12-24T19:13:57.795Z,10.89
2022-12-24T19:16:24.767Z,10.91
2022-12-24T19:18:51.578Z,10.97
2022-12-24T19:21:18.779Z,10.97
2022-12-24T19:23:46.754Z,10.96
2022-12-24T19:26:16.692Z,10.85
2022-12-24T19:28:43.949Z,10.92
2022-12-24T19:31:23.982Z,10.92
2022-12-24T19:33:54.996Z,10.92
2022-12-24T19:36:28.732Z,10.90
2022-12-24T19:38:57.210Z,10.83
2022-12-24T19:41:27.041Z,10.89
2022-12-24T19:43:57.011Z,10.88
2022-12-24T19:46:28.572Z,10.87
2022-12-24T19:48:59.193Z,10.78
2022-12-24T19:51:27.094Z,10.86
2022-12-24T19:53:55.580Z,10.81
2022-12-24T19:56:25.689Z,10.81
2022-12-24T19:58:52.789Z,10.71
2022-12-24T20:01:23.004Z,10.78
2022-12-24T20:03:51.529Z,10.81
2022-12-24T20:06:21.704Z,10.80
2022-12-24T20:08:48.832Z,10.75
2022-12-24T20:11:19.343Z,10.77
2022-12-24T20:13:47.077Z,10.74
2022-12-24T20:16:20.182Z,10.75
2022-12-24T20:18:58.101Z,10.74
2022-12-24T20:21:26.134Z,10.65
2022-12-24T20:23:53.657Z,10.72
2022-12-24T20:26:27.523Z,10.73
2022-12-24T20:28:54.397Z,10.69
2022-12-24T20:31:27.827Z,10.73
2022-12-24T20:33:56.377Z,10.63
2022-12-24T20:36:24.410Z,10.70
2022-12-24T20:38:51.585Z,10.70
2022-12-24T20:41:21.261Z,10.66
2022-12-24T20:43:49.095Z,10.67
2022-12-24T20:46:22.404Z,10.66
2022-12-24T20:48:50.034Z,10.65
2022-12-24T20:51:24.592Z,10.67
2022-12-24T20:53:59.046Z,10.68
2022-12-24T20:56:26.455Z,10.67
2022-12-24T20:58:53.585Z,10.56
2022-12-24T21:01:25.967Z,10.31
2022-12-24T21:03:55.638Z,10.62
2022-12-24T21:06:24.378Z,10.62
2022-12-24T21:08:52.636Z,10.62
2022-12-24T21:11:38.822Z,10.53
2022-12-24T21:14:06.273Z,10.61
2022-12-24T21:16:35.523Z,10.60
2022-12-24T21:19:03.381Z,10.57
2022-12-24T21:21:30.689Z,10.54
2022-12-24T21:23:57.833Z,10.56
2022-12-24T21:26:24.680Z,10.54
2022-12-24T21:28:51.563Z,10.53
2022-12-24T21:31:18.877Z,10.55
2022-12-24T21:33:45.947Z,10.56
2022-12-24T21:36:14.359Z,10.52
2022-12-24T21:38:42.088Z,10.56
2022-12-24T21:41:15.893Z,10.53
2022-12-24T21:43:43.557Z,10.53
2022-12-24T21:46:18.580Z,10.52
2022-12-24T21:49:04.441Z,10.52
2022-12-24T21:51:31.950Z,10.52
2022-12-24T21:54:17.641Z,10.53
2022-12-24T21:57:02.892Z,10.52
2022-12-24T21:59:29.811Z,10.52
2022-12-24T22:01:57.487Z,10.49
2022-12-24T22:04:25.494Z,10.44
2022-12-24T22:07:10.940Z,10.51
2022-12-24T22:09:57.999Z,10.52
2022-12-24T22:12:30.738Z,10.46
2022-12-24T22:14:57.971Z,10.54
2022-12-24T22:17:25.901Z,10.51
2022-12-24T22:19:54.483Z,10.27
2022-12-24T22:22:22.412Z,10.57
2022-12-24T22:24:49.231Z,10.47
2022-12-24T22:27:16.135Z,10.32
2022-12-24T22:29:43.043Z,10.32
2022-12-24T22:32:09.877Z,10.33
2022-12-24T22:34:36.728Z,10.33
2022-12-24T22:37:03.648Z,10.35
2022-12-24T22:39:30.523Z,10.37
2022-12-24T22:41:58.096Z,10.37
2022-12-24T22:44:25.520Z,10.36
2022-12-24T22:46:52.422Z,10.33
2022-12-24T22:49:19.342Z,10.34
2022-12-24T22:51:46.215Z,10.34
2022-12-24T22:54:13.124Z,10.37
2022-12-24T22:56:41.715Z,10.36
2022-12-24T22:59:12.787Z,10.35
2022-12-24T23:01:43.015Z,10.31
2022-12-24T23:04:11.153Z,10.37
2022-12-24T23:06:38.615Z,10.33
2022-12-24T23:09:08.461Z,10.29
2022-12-24T23:11:36.136Z,10.30
2022-12-24T23:14:21.539Z,10.35
2022-12-24T23:16:48.409Z,10.32
2022-12-24T23:19:15.513Z,10.34
2022-12-24T23:21:42.385Z,10.35
2022-12-24T23:24:11.028Z,10.32
2022-12-24T23:26:37.808Z,10.17
2022-12-24T23:29:04.610Z,10.32
2022-12-24T23:31:31.540Z,10.26
2022-12-24T23:33:58.347Z,10.28
2022-12-24T23:36:25.158Z,10.19
2022-12-24T23:38:54.241Z,10.26
2022-12-24T23:41:21.458Z,10.28
2022-12-24T23:43:48.519Z,10.20
2022-12-24T23:46:18.116Z,10.25
2022-12-24T23:48:48.247Z,10.25
2022-12-24T23:51:19.599Z,10.23
2022-12-24T23:53:46.541Z,10.21
2022-12-24T23:56:13.377Z,10.22
2022-12-24T23:58:41.735Z,10.19
